createdAt,value
2019-01-02T00:03:03.230Z,73.43
2019-01-02T00:06:07.782Z,73.14
2019-01-02T00:09:16.577Z,72.98
2019-01-02T00:12:27.102Z,73.12
2019-01-02T00:15:31.601Z,73.34
2019-01-02T00:18:36.008Z,72.79
2019-01-02T00:21:43.182Z,72.84
2019-01-02T00:24:47.634Z,73.06
2019-01-02T00:27:55.130Z,73.38
2019-01-02T00:31:06.572Z,73.41
2019-01-02T00:37:25.943Z,72.47
2019-01-02T00:40:30.440Z,72.22
2019-01-02T00:43:34.611Z,72.05
2019-01-02T00:46:46.351Z,71.82
2019-01-02T00:49:50.847Z,71.82
2019-01-02T00:52:55.641Z,71.90
2019-01-02T00:56:00.166Z,71.97
2019-01-02T00:59:04.631Z,70.91
2019-01-02T01:02:09.050Z,70.82
2019-01-02T01:05:13.326Z,71.03
2019-01-02T01:08:18.566Z,70.60
2019-01-02T01:11:23.687Z,70.47
2019-01-02T01:14:31.016Z,70.60
2019-01-02T01:17:35.557Z,70.37
2019-01-02T01:20:39.773Z,69.98
2019-01-02T01:23:44.001Z,70.06
2019-01-02T01:26:48.082Z,70.50
2019-01-02T01:29:52.511Z,70.38
2019-01-02T01:32:56.802Z,69.57
2019-01-02T01:36:01.496Z,69.33
2019-01-02T01:39:08.415Z,69.41
2019-01-02T01:42:12.755Z,69.39
2019-01-02T01:45:16.988Z,69.46
2019-01-02T01:48:24.440Z,70.14
2019-01-02T01:51:28.926Z,70.28
2019-01-02T01:54:33.109Z,70.24
2019-01-02T01:57:45.006Z,70.76
2019-01-02T02:01:03.379Z,71.10
2019-01-02T02:04:07.694Z,71.46
2019-01-02T02:07:30.102Z,71.78
2019-01-02T02:10:35.056Z,72.06
2019-01-02T02:13:39.949Z,72.18
2019-01-02T02:16:53.585Z,72.68
2019-01-02T02:19:58.381Z,72.83
2019-01-02T02:23:03.091Z,72.53
2019-01-02T02:26:29.867Z,72.05
2019-01-02T02:29:34.188Z,72.50
2019-01-02T02:32:40.042Z,72.51
2019-01-02T02:35:49.304Z,72.37
2019-01-02T02:39:04.295Z,72.68
2019-01-02T02:42:10.319Z,72.41
2019-01-02T02:45:17.616Z,72.49
2019-01-02T02:48:22.484Z,72.44
2019-01-02T02:51:27.128Z,72.35
2019-01-02T02:54:34.282Z,72.59
2019-01-02T02:57:51.173Z,71.84
2019-01-02T03:00:55.397Z,71.51
2019-01-02T03:04:00.118Z,71.67
2019-01-02T03:07:06.464Z,70.96
2019-01-02T03:10:12.876Z,70.84
2019-01-02T03:16:43.542Z,69.86
2019-01-02T03:19:48.466Z,67.95
2019-01-02T03:22:53.025Z,67.97
2019-01-02T03:25:57.558Z,67.18
2019-01-02T03:29:02.637Z,67.23
2019-01-02T03:32:07.527Z,66.36
2019-01-02T03:35:12.090Z,65.56
2019-01-02T03:38:16.440Z,65.40
2019-01-02T03:41:29.232Z,65.68
2019-01-02T03:44:33.382Z,65.18
2019-01-02T03:47:37.991Z,64.63
2019-01-02T03:50:42.857Z,64.59
2019-01-02T03:53:55.473Z,64.22
2019-01-02T03:56:59.661Z,63.87
2019-01-02T04:00:06.861Z,63.38
2019-01-02T04:03:11.507Z,63.20
2019-01-02T04:06:46.342Z,63.17
2019-01-02T04:09:50.828Z,63.18
2019-01-02T04:13:00.974Z,63.05
2019-01-02T04:16:30.408Z,63.16
2019-01-02T04:23:02.930Z,62.63
2019-01-02T04:26:07.407Z,62.55
2019-01-02T04:29:11.762Z,62.83
2019-01-02T04:32:17.365Z,63.03
2019-01-02T04:35:21.617Z,62.72
2019-01-02T04:38:28.292Z,63.02
2019-01-02T04:41:32.226Z,62.73
2019-01-02T04:44:36.583Z,62.42
2019-01-02T04:47:41.101Z,62.21
2019-01-02T04:50:49.840Z,62.81
2019-01-02T04:53:55.491Z,62.55
2019-01-02T04:57:01.693Z,62.95
2019-01-02T05:00:11.827Z,62.12
2019-01-02T05:03:16.077Z,62.04
2019-01-02T05:06:20.379Z,62.43
2019-01-02T05:09:27.942Z,63.17
2019-01-02T05:12:32.118Z,63.01
2019-01-02T05:15:45.142Z,63.04
2019-01-02T05:18:49.651Z,63.28
2019-01-02T05:21:59.936Z,63.99
2019-01-02T05:25:06.622Z,63.93
2019-01-02T05:28:10.736Z,63.72
2019-01-02T05:31:15.070Z,63.72
2019-01-02T05:34:22.157Z,63.54
2019-01-02T05:37:26.170Z,64.15
2019-01-02T05:40:34.251Z,64.46
2019-01-02T05:43:38.278Z,64.45
2019-01-02T05:46:45.439Z,63.93
2019-01-02T05:49:49.681Z,63.60
2019-01-02T05:52:53.815Z,63.41
2019-01-02T05:55:58.027Z,63.68
2019-01-02T05:59:02.666Z,63.12
2019-01-02T06:02:06.847Z,63.11
2019-01-02T06:05:11.106Z,63.76
2019-01-02T06:08:15.493Z,62.64
2019-01-02T06:11:19.478Z,62.86
2019-01-02T06:14:23.841Z,62.87
2019-01-02T06:17:28.241Z,62.79
2019-01-02T06:20:32.467Z,62.49
2019-01-02T06:23:36.495Z,62.80
2019-01-02T06:26:40.651Z,62.40
2019-01-02T06:29:44.926Z,62.29
2019-01-02T06:32:49.250Z,61.96
2019-01-02T06:35:53.792Z,62.49
2019-01-02T06:38:58.214Z,63.03
2019-01-02T06:42:06.029Z,63.01
2019-01-02T06:45:12.543Z,62.73
2019-01-02T06:48:16.731Z,62.54
2019-01-02T06:51:21.102Z,62.99
2019-01-02T06:54:25.134Z,63.13
2019-01-02T06:57:29.600Z,63.49
2019-01-02T07:00:44.066Z,63.13
2019-01-02T07:03:48.107Z,63.13
2019-01-02T07:06:52.299Z,63.11
2019-01-02T07:09:57.192Z,63.99
2019-01-02T07:13:01.569Z,63.87
2019-01-02T07:16:05.679Z,64.91
2019-01-02T07:19:12.444Z,65.39
2019-01-02T07:22:16.555Z,65.48
2019-01-02T07:25:20.791Z,65.74
2019-01-02T07:28:25.070Z,65.87
2019-01-02T07:31:29.577Z,65.91
2019-01-02T07:34:57.483Z,65.69
2019-01-02T07:38:42.933Z,65.76
2019-01-02T07:42:29.085Z,65.58
2019-01-02T07:45:52.719Z,66.17
2019-01-02T07:49:34.417Z,66.09
2019-01-02T07:52:58.595Z,66.44
2019-01-02T07:57:05.359Z,65.79
2019-01-02T08:00:30.909Z,65.81
2019-01-02T08:04:05.511Z,66.31
2019-01-02T08:08:05.772Z,65.25
2019-01-02T08:11:43.599Z,65.47
2019-01-02T08:15:42.895Z,65.44
2019-01-02T08:19:27.575Z,64.34
2019-01-02T08:22:59.082Z,64.07
2019-01-02T08:26:26.969Z,63.89
2019-01-02T08:30:05.293Z,64.13
2019-01-02T08:33:55.405Z,64.30
2019-01-02T08:37:55.798Z,64.35
2019-01-02T08:41:28.007Z,64.22
2019-01-02T08:45:07.129Z,64.36
2019-01-02T08:48:30.126Z,63.78
2019-01-02T08:51:54.208Z,64.05
2019-01-02T08:56:07.140Z,63.97
2019-01-02T08:59:47.714Z,62.60
2019-01-02T09:03:20.670Z,63.06
2019-01-02T09:06:50.352Z,62.94
2019-01-02T09:10:39.904Z,62.86
2019-01-02T09:14:15.112Z,63.35
2019-01-02T09:17:53.180Z,62.99
2019-01-02T09:21:34.420Z,63.57
2019-01-02T09:25:16.768Z,63.76
2019-01-02T09:28:52.274Z,62.12
2019-01-02T09:32:30.596Z,62.17
2019-01-02T09:36:02.225Z,61.63
2019-01-02T09:40:02.415Z,61.95
2019-01-02T09:43:36.433Z,60.13
2019-01-02T09:47:52.262Z,60.45
2019-01-02T09:51:36.818Z,59.68
2019-01-02T09:55:19.457Z,58.21
2019-01-02T09:58:46.754Z,58.43
2019-01-02T10:02:34.492Z,57.90
2019-01-02T10:06:01.880Z,57.24
2019-01-02T10:09:31.562Z,55.98
2019-01-02T10:13:15.539Z,56.27
2019-01-02T10:16:56.372Z,55.90
2019-01-02T10:20:50.859Z,56.61
2019-01-02T10:24:23.733Z,56.25
2019-01-02T10:27:57.098Z,56.04
2019-01-02T10:31:51.032Z,56.36
2019-01-02T10:35:39.273Z,56.60
2019-01-02T10:39:09.159Z,55.71
2019-01-02T10:42:46.037Z,55.05
2019-01-02T10:46:46.691Z,55.75
2019-01-02T10:50:12.902Z,55.83
2019-01-02T10:53:58.288Z,56.28
2019-01-02T10:57:24.217Z,54.35
2019-01-02T11:00:55.255Z,54.75
2019-01-02T11:04:42.423Z,54.78
2019-01-02T11:08:05.930Z,54.44
2019-01-02T11:11:52.355Z,54.74
2019-01-02T11:15:12.009Z,54.83
2019-01-02T11:18:50.641Z,54.78
2019-01-02T11:22:26.131Z,55.10
2019-01-02T11:26:07.871Z,54.63
2019-01-02T11:29:30.611Z,53.81
2019-01-02T11:33:30.900Z,53.44
2019-01-02T11:37:03.980Z,53.44
2019-01-02T11:40:57.254Z,53.36
2019-01-02T11:44:45.526Z,54.32
2019-01-02T11:47:49.584Z,53.07
2019-01-02T11:50:53.742Z,53.18
2019-01-02T11:53:57.922Z,52.88
2019-01-02T11:57:01.956Z,53.06
2019-01-02T12:00:10.682Z,53.18
2019-01-02T12:03:14.664Z,52.59
2019-01-02T12:06:22.667Z,52.70
2019-01-02T12:09:26.702Z,53.27
2019-01-02T12:12:30.759Z,52.96
2019-01-02T12:15:34.884Z,52.82
2019-01-02T12:18:38.860Z,53.38
2019-01-02T12:21:46.196Z,53.09
2019-01-02T12:24:50.115Z,53.00
2019-01-02T12:27:54.050Z,53.34
2019-01-02T12:30:58.172Z,53.26
2019-01-02T12:34:02.036Z,53.85
2019-01-02T12:37:06.101Z,53.99
2019-01-02T12:40:10.386Z,54.63
2019-01-02T12:43:14.422Z,54.65
2019-01-02T12:46:18.522Z,55.40
2019-01-02T12:49:22.730Z,55.07
2019-01-02T12:52:26.601Z,54.33
2019-01-02T12:55:30.643Z,54.23
2019-01-02T12:58:34.960Z,54.10
2019-01-02T13:02:10.797Z,54.45
2019-01-02T13:05:50.189Z,54.36
2019-01-02T13:09:50.519Z,54.11
2019-01-02T13:13:41.467Z,54.88
2019-01-02T13:17:02.413Z,54.71
2019-01-02T13:20:31.463Z,55.20
2019-01-02T13:23:52.386Z,54.23
2019-01-02T13:27:29.155Z,54.41
2019-01-02T13:31:12.946Z,54.39
2019-01-02T13:34:35.623Z,54.94
2019-01-02T13:38:12.645Z,55.08
2019-01-02T13:41:38.680Z,55.35
2019-01-02T13:45:08.546Z,54.67
2019-01-02T13:48:51.352Z,54.94
2019-01-02T13:51:56.066Z,55.05
2019-01-02T13:55:04.338Z,55.32
2019-01-02T13:58:08.299Z,54.51
2019-01-02T14:01:12.331Z,54.60
2019-01-02T14:04:16.205Z,55.42
2019-01-02T14:07:20.357Z,55.14
2019-01-02T14:10:24.634Z,55.83
2019-01-02T14:13:28.721Z,56.22
2019-01-02T14:16:32.664Z,56.12
2019-01-02T14:19:36.794Z,56.08
2019-01-02T14:22:44.400Z,56.86
2019-01-02T14:25:49.599Z,57.31
2019-01-02T14:28:53.754Z,57.10
2019-01-02T14:31:57.696Z,56.82
2019-01-02T14:35:01.852Z,57.07
2019-01-02T14:38:05.871Z,57.78
2019-01-02T14:41:11.549Z,57.84
2019-01-02T14:44:15.541Z,57.76
2019-01-02T14:47:19.857Z,57.90
2019-01-02T14:50:23.951Z,57.81
2019-01-02T14:53:28.048Z,58.00
2019-01-02T14:56:32.301Z,57.79
2019-01-02T14:59:36.601Z,57.99
2019-01-02T15:02:40.702Z,58.86
2019-01-02T15:05:46.410Z,59.00
2019-01-02T15:08:50.504Z,59.09
2019-01-02T15:11:54.666Z,59.45
2019-01-02T15:15:00.059Z,59.89
2019-01-02T15:18:04.062Z,60.14
2019-01-02T15:21:08.063Z,60.71
2019-01-02T15:24:12.409Z,60.58
2019-01-02T15:27:16.502Z,60.76
2019-01-02T15:30:20.925Z,60.88
2019-01-02T15:33:25.144Z,60.97
2019-01-02T15:36:29.444Z,61.78
2019-01-02T15:39:33.544Z,61.98
2019-01-02T15:42:37.507Z,62.25
2019-01-02T15:45:41.803Z,61.78
2019-01-02T15:48:45.912Z,62.30
2019-01-02T15:51:50.210Z,62.70
2019-01-02T15:54:54.398Z,63.06
2019-01-02T15:57:58.544Z,63.40
2019-01-02T16:01:02.905Z,63.70
2019-01-02T16:04:07.022Z,64.00
2019-01-02T16:07:11.224Z,64.06
2019-01-02T16:10:15.355Z,64.46
2019-01-02T16:13:19.317Z,64.73
2019-01-02T16:16:23.528Z,64.78
2019-01-02T16:19:27.664Z,64.83
2019-01-02T16:22:31.994Z,64.66
2019-01-02T16:25:38.392Z,64.78
2019-01-02T16:28:42.464Z,64.80
2019-01-02T16:31:46.583Z,64.70
2019-01-02T16:34:50.599Z,64.95
2019-01-02T16:37:54.653Z,65.32
2019-01-02T16:40:58.803Z,65.99
2019-01-02T16:44:06.059Z,66.34
2019-01-02T16:47:11.040Z,66.42
2019-01-02T16:50:15.111Z,67.00
2019-01-02T16:53:19.169Z,66.89
2019-01-02T16:56:23.259Z,67.25
2019-01-02T16:59:29.406Z,67.15
2019-01-02T17:02:33.432Z,67.18
2019-01-02T17:05:37.418Z,67.44
2019-01-02T17:08:41.539Z,67.59
2019-01-02T17:11:45.748Z,67.44
2019-01-02T17:14:49.838Z,67.12
2019-01-02T17:17:53.788Z,67.28
2019-01-02T17:20:57.758Z,67.58
2019-01-02T17:24:01.751Z,67.86
2019-01-02T17:27:05.684Z,67.76
2019-01-02T17:30:09.750Z,67.75
2019-01-02T17:33:13.629Z,68.22
2019-01-02T17:36:17.635Z,68.63
2019-01-02T17:39:21.498Z,68.76
2019-01-02T17:42:25.517Z,68.75
2019-01-02T17:45:32.794Z,69.11
2019-01-02T17:48:36.898Z,69.81
2019-01-02T17:51:41.357Z,69.81
2019-01-02T17:54:49.005Z,69.76
2019-01-02T17:57:53.180Z,69.87
2019-01-02T18:01:00.741Z,69.90
2019-01-02T18:04:04.942Z,70.09
2019-01-02T18:07:10.094Z,70.36
2019-01-02T18:10:14.350Z,70.48
2019-01-02T18:13:18.618Z,70.56
2019-01-02T18:16:22.989Z,70.62
2019-01-02T18:19:26.861Z,70.73
2019-01-02T18:22:31.046Z,70.63
2019-01-02T18:25:35.318Z,70.79
2019-01-02T18:28:39.340Z,71.10
2019-01-02T18:31:43.550Z,71.28
2019-01-02T18:34:47.583Z,71.22
2019-01-02T18:37:51.708Z,71.64
2019-01-02T18:40:55.730Z,71.97
2019-01-02T18:44:01.099Z,72.26
2019-01-02T18:47:05.847Z,72.70
2019-01-02T18:50:11.494Z,72.97
2019-01-02T18:53:15.616Z,73.18
2019-01-02T18:56:19.604Z,73.20
2019-01-02T18:59:23.700Z,73.54
2019-01-02T19:02:27.779Z,73.59
2019-01-02T19:05:31.913Z,73.62
2019-01-02T19:08:36.128Z,73.62
2019-01-02T19:11:40.307Z,73.70
2019-01-02T19:14:46.729Z,73.94
2019-01-02T19:17:50.875Z,74.17
2019-01-02T19:20:55.032Z,75.17
2019-01-02T19:23:59.275Z,75.24
2019-01-02T19:27:03.427Z,75.23
2019-01-02T19:30:08.978Z,75.21
2019-01-02T19:33:13.034Z,75.36
2019-01-02T19:36:21.093Z,75.56
2019-01-02T19:39:25.166Z,75.85
2019-01-02T19:42:29.325Z,75.89
2019-01-02T19:45:33.394Z,75.99
2019-01-02T19:48:37.421Z,76.15
2019-01-02T19:51:43.712Z,76.21
2019-01-02T19:54:47.405Z,76.31
2019-01-02T19:57:51.585Z,76.15
2019-01-02T20:00:57.741Z,76.12
2019-01-02T20:04:02.000Z,76.26
2019-01-02T20:07:06.307Z,76.31
2019-01-02T20:10:11.138Z,76.44
2019-01-02T20:13:15.686Z,76.48
2019-01-02T20:16:19.882Z,76.75
2019-01-02T20:19:24.198Z,76.83
2019-01-02T20:22:28.209Z,76.77
2019-01-02T20:25:32.366Z,76.87
2019-01-02T20:28:36.478Z,76.98
2019-01-02T20:31:40.664Z,77.20
2019-01-02T20:34:44.838Z,77.19
2019-01-02T20:37:49.005Z,77.31
2019-01-02T20:40:53.265Z,77.31
2019-01-02T20:43:59.758Z,77.46
2019-01-02T20:47:05.761Z,77.52
2019-01-02T20:50:10.820Z,77.54
2019-01-02T20:53:15.196Z,77.79
2019-01-02T20:56:19.437Z,78.26
2019-01-02T20:59:23.769Z,78.43
2019-01-02T21:02:32.984Z,78.43
2019-01-02T21:05:38.601Z,78.95
2019-01-02T21:08:42.657Z,79.52
2019-01-02T21:11:46.902Z,78.66
2019-01-02T21:14:52.208Z,77.83
2019-01-02T21:17:56.581Z,77.31
2019-01-02T21:21:01.002Z,77.28
2019-01-02T21:24:05.279Z,77.65
2019-01-02T21:27:09.861Z,77.71
2019-01-02T21:30:14.156Z,77.93
2019-01-02T21:33:18.214Z,77.78
2019-01-02T21:36:22.358Z,77.67
2019-01-02T21:39:26.773Z,77.38
2019-01-02T21:42:31.117Z,77.17
2019-01-02T21:45:37.172Z,77.10
2019-01-02T21:48:41.720Z,76.32
2019-01-02T21:51:45.902Z,76.38
2019-01-02T21:54:51.824Z,76.03
2019-01-02T21:57:56.007Z,76.20
2019-01-02T22:01:00.341Z,76.29
2019-01-02T22:04:04.561Z,76.31
2019-01-02T22:07:08.986Z,76.36
2019-01-02T22:10:13.123Z,76.03
2019-01-02T22:13:17.351Z,75.69
2019-01-02T22:16:21.736Z,75.70
2019-01-02T22:19:26.158Z,75.83
2019-01-02T22:22:30.491Z,75.90
2019-01-02T22:25:35.288Z,75.98
2019-01-02T22:28:41.856Z,76.13
2019-01-02T22:31:47.615Z,76.18
2019-01-02T22:34:52.730Z,76.44
2019-01-02T22:38:00.505Z,76.92
2019-01-02T22:41:05.336Z,77.39
2019-01-02T22:44:09.925Z,77.91
2019-01-02T22:47:15.376Z,78.33
2019-01-02T22:50:23.276Z,78.66
2019-01-02T22:53:28.700Z,78.83
2019-01-02T22:56:34.203Z,78.84
2019-01-02T22:59:39.807Z,78.98
2019-01-02T23:03:04.622Z,79.06
2019-01-02T23:06:26.568Z,79.14
2019-01-02T23:09:51.687Z,79.26
2019-01-02T23:13:15.205Z,79.39
2019-01-02T23:16:53.646Z,79.51
2019-01-02T23:20:15.750Z,79.98
2019-01-02T23:23:38.030Z,80.55
2019-01-02T23:27:16.808Z,80.62
2019-01-02T23:30:57.836Z,80.92
2019-01-02T23:34:28.008Z,81.03
2019-01-02T23:37:53.022Z,81.05
2019-01-02T23:45:05.678Z,80.29
2019-01-02T23:48:20.592Z,80.48
2019-01-02T23:51:43.934Z,80.68
2019-01-02T23:55:05.771Z,80.69
2019-01-02T23:58:30.130Z,80.82
